Time;durP1;ratioP1;P1;durP2;ratioP2;P2;SDS_P1;SDS_P2;PMS_P1;PMS_P2;Temp;Humidity;BMP_temperature;BMP_pressure;BME280_temperature;BME280_humidity;BME280_pressure;Samples;Min_cycle;Max_cycle;Signal;HPM_P1;HPM_P2
2022/04/15 00:02:19;;;;;;;5.57;2.87;;;11.20;99.90;;;;;;4911335;29;20197;-89
2022/04/15 00:04:44;;;;;;;4.10;3.00;;;14.00;99.90;;;;;;4915643;29;20453;-89
2022/04/15 00:07:10;;;;;;;3.30;2.90;;;11.10;99.90;;;;;;4920529;29;20201;-88
2022/04/15 00:09:36;;;;;;;6.10;3.13;;;;;;;;;;4927798;29;20231;-88
2022/04/15 00:12:17;;;;;;;6.00;2.60;;;11.10;99.90;;;;;;4919271;29;20249;-88
2022/04/15 00:14:43;;;;;;;4.03;3.47;;;;;;;;;;4912965;29;20821;-88
2022/04/15 00:17:08;;;;;;;8.60;3.67;;;11.00;99.90;;;;;;4915447;29;20205;-88
2022/04/15 00:19:34;;;;;;;4.37;3.00;;;11.00;99.90;;;;;;4910256;29;20441;-88
2022/04/15 00:21:59;;;;;;;4.90;4.00;;;11.00;99.90;;;;;;4914994;29;20303;-88
2022/04/15 00:24:25;;;;;;;3.63;3.10;;;;;;;;;;4914478;29;20290;-88
2022/04/15 00:26:51;;;;;;;6.45;3.20;;;11.10;99.90;;;;;;4924476;29;20258;-88
2022/04/15 00:29:17;;;;;;;5.27;3.20;;;11.10;99.90;;;;;;4927237;29;20727;-88
2022/04/15 00:31:42;;;;;;;5.47;3.83;;;11.00;99.90;;;;;;4920709;29;20185;-89
2022/04/15 00:34:08;;;;;;;3.60;3.30;;;;;;;;;;4917205;29;20599;-89
2022/04/15 00:36:34;;;;;;;5.83;2.63;;;;;;;;;;4921870;29;20274;-89
2022/04/15 00:39:00;;;;;;;3.93;3.00;;;11.10;99.90;;;;;;4915336;29;20465;-87
2022/04/15 00:41:26;;;;;;;4.83;3.53;;;;;;;;;;4914397;29;20708;-88
2022/04/15 00:43:55;;;;;;;8.80;3.60;;;11.20;99.90;;;;;;4912955;29;20641;-88
2022/04/15 00:46:21;;;;;;;4.88;2.85;;;11.10;99.90;;;;;;4913600;29;20513;-87
2022/04/15 00:48:47;;;;;;;4.07;3.20;;;11.20;99.90;;;;;;4915215;29;20217;-89
2022/04/15 00:51:12;;;;;;;11.87;3.00;;;11.20;99.90;;;;;;4914593;29;20445;-88
2022/04/15 00:53:42;;;;;;;4.30;2.83;;;11.20;99.90;;;;;;4928207;29;20201;-88
2022/04/15 00:56:09;;;;;;;5.75;4.38;;;11.20;99.90;;;;;;4930540;29;20182;-88
2022/04/15 00:58:38;;;;;;;4.80;3.17;;;11.20;99.90;;;;;;4929323;29;20214;-89
2022/04/15 01:01:05;;;;;;;8.88;3.20;;;11.20;99.90;;;;;;4920049;29;20297;-88
2022/04/15 01:03:31;;;;;;;7.50;3.28;;;11.30;99.90;;;;;;4916674;29;20189;-88
2022/04/15 01:05:59;;;;;;;5.25;3.80;;;11.30;99.90;;;;;;4930497;29;20194;-89
2022/04/15 01:08:29;;;;;;;4.25;3.13;;;11.20;99.90;;;;;;4918775;29;20592;-89
2022/04/15 01:10:58;;;;;;;8.00;3.00;;;11.30;99.90;;;;;;4917424;29;20810;-88
2022/04/15 01:13:24;;;;;;;3.88;3.05;;;11.20;99.90;;;;;;4918325;29;20712;-88
2022/04/15 01:15:53;;;;;;;2.60;2.38;;;11.30;99.90;;;;;;4917525;29;20217;-89
2022/04/15 01:18:18;;;;;;;6.78;2.83;;;11.30;99.90;;;;;;4916639;29;20213;-88
2022/04/15 01:20:51;;;;;;;7.40;3.23;;;11.30;99.90;;;;;;4916808;29;20258;-91
2022/04/15 01:23:17;;;;;;;4.85;3.00;;;11.20;99.90;;;;;;4910241;29;20214;-88
2022/04/15 01:25:43;;;;;;;2.43;2.23;;;;;;;;;;4910642;29;20241;-89
2022/04/15 01:28:09;;;;;;;7.10;2.97;;;11.20;99.90;;;;;;4916336;29;20481;-89
2022/04/15 01:30:35;;;;;;;5.18;2.70;;;11.20;99.90;;;;;;4916805;29;20453;-90
2022/04/15 01:33:02;;;;;;;3.90;3.30;;;;;;;;;;4915313;29;20186;-88
2022/04/15 01:35:28;;;;;;;3.15;2.80;;;;;;;;;;4911808;29;20205;-88
2022/04/15 01:37:57;;;;;;;2.40;2.20;;;10.90;99.90;;;;;;4933327;29;20198;-87
2022/04/15 01:40:22;;;;;;;5.28;3.28;;;10.80;99.90;;;;;;4912739;29;20474;-88
2022/04/15 01:42:48;;;;;;;7.30;3.70;;;10.80;99.90;;;;;;4906188;29;21781;-90
2022/04/15 01:45:14;;;;;;;2.60;2.40;;;10.80;99.90;;;;;;4899206;29;20197;-89
2022/04/15 01:47:40;;;;;;;3.25;2.80;;;10.70;99.90;;;;;;4901798;29;20206;-89
2022/04/15 01:50:07;;;;;;;4.97;3.40;;;10.70;99.90;;;;;;4904536;29;20186;-88
2022/04/15 01:52:33;;;;;;;3.90;3.13;;;10.60;99.90;;;;;;4906928;29;20186;-88
2022/04/15 01:54:59;;;;;;;3.60;3.10;;;;;;;;;;4905709;29;20546;-88
2022/04/15 01:57:25;;;;;;;3.35;3.05;;;10.50;99.90;;;;;;4904908;29;20698;-88
2022/04/15 01:59:51;;;;;;;3.77;3.00;;;10.40;99.90;;;;;;4929138;29;20200;-89
2022/04/15 02:02:16;;;;;;;5.03;3.17;;;10.80;99.90;;;;;;4913133;29;20197;-89
2022/04/15 02:04:42;;;;;;;4.00;3.03;;;10.40;99.90;;;;;;4921104;29;20992;-87
2022/04/15 02:07:08;;;;;;;3.03;2.60;;;10.40;99.90;;;;;;4917961;29;20694;-89
2022/04/15 02:09:33;;;;;;;2.50;2.30;;;10.40;99.90;;;;;;4907010;29;20312;-89
2022/04/15 02:11:59;;;;;;;3.10;2.60;;;10.30;99.90;;;;;;4912572;29;20195;-88
2022/04/15 02:14:25;;;;;;;5.10;4.50;;;10.30;99.90;;;;;;4925084;29;20253;-87
2022/04/15 02:16:53;;;;;;;3.10;2.80;;;10.30;99.90;;;;;;4925261;29;20272;-88
2022/04/15 02:19:22;;;;;;;6.95;3.17;;;10.20;99.90;;;;;;4928266;29;20186;-89
2022/04/15 02:21:48;;;;;;;3.88;3.20;;;10.10;99.90;;;;;;4918645;29;20193;-88
2022/04/15 02:24:14;;;;;;;8.68;3.10;;;;;;;;;;4930904;29;20193;-89
2022/04/15 02:26:43;;;;;;;3.30;2.97;;;10.10;99.90;;;;;;4926269;29;20205;-88
2022/04/15 02:29:09;;;;;;;7.32;3.22;;;10.10;99.90;;;;;;4922135;29;21074;-88
2022/04/15 02:31:35;;;;;;;5.55;3.30;;;10.10;99.90;;;;;;4912040;29;20209;-88
2022/04/15 02:34:02;;;;;;;3.90;3.05;;;;;;;;;;4927716;29;20193;-88
2022/04/15 02:36:27;;;;;;;8.43;3.17;;;10.10;99.90;;;;;;4929661;29;20208;-88
2022/04/15 02:38:53;;;;;;;5.37;3.63;;;10.10;99.90;;;;;;4930724;29;20187;-88
2022/04/15 02:41:18;;;;;;;4.03;3.40;;;10.10;99.90;;;;;;4928176;29;20192;-88
2022/04/15 02:43:44;;;;;;;6.43;3.77;;;10.10;99.90;;;;;;4928397;29;20225;-88
2022/04/15 02:46:11;;;;;;;4.10;3.23;;;9.90;99.90;;;;;;4934320;29;20189;-88
2022/04/15 02:48:36;;;;;;;5.00;4.32;;;10.00;99.90;;;;;;4924930;29;20327;-88
2022/04/15 02:51:03;;;;;;;4.50;3.97;;;9.90;99.90;;;;;;4929259;29;20277;-89
2022/04/15 02:53:30;;;;;;;6.03;3.72;;;10.00;99.90;;;;;;4926212;29;20296;-88
2022/04/15 02:55:55;;;;;;;7.53;3.85;;;11.50;99.90;;;;;;4945904;29;20216;-86
2022/04/15 02:58:21;;;;;;;4.77;3.60;;;9.90;99.90;;;;;;4938172;29;20245;-87
2022/04/15 03:00:47;;;;;;;6.10;3.93;;;9.80;99.90;;;;;;4926666;29;20189;-88
2022/04/15 03:03:13;;;;;;;7.90;4.03;;;;;;;;;;4931761;29;20241;-87
2022/04/15 03:05:39;;;;;;;4.60;3.70;;;;;;;;;;4922802;29;20197;-88
2022/04/15 03:08:05;;;;;;;6.97;4.20;;;9.80;99.90;;;;;;4913064;29;20477;-87
2022/04/15 03:10:31;;;;;;;4.45;3.70;;;9.80;99.90;;;;;;4912676;29;20194;-87
2022/04/15 03:12:56;;;;;;;6.37;3.70;;;9.80;99.90;;;;;;4910231;29;20275;-88
2022/04/15 03:15:22;;;;;;;4.80;3.60;;;9.80;99.90;;;;;;4911005;29;20221;-88
2022/04/15 03:17:47;;;;;;;10.00;4.27;;;9.80;99.90;;;;;;4906812;29;20205;-88
2022/04/15 03:20:13;;;;;;;6.47;5.00;;;9.90;99.90;;;;;;4909389;29;20186;-88
2022/04/15 03:22:40;;;;;;;16.43;5.10;;;9.90;99.90;;;;;;4911758;29;20281;-88
2022/04/15 03:25:09;;;;;;;7.25;4.45;;;9.90;99.90;;;;;;4906003;29;20808;-88
2022/04/15 03:27:34;;;;;;;9.35;3.92;;;9.80;99.90;;;;;;4908544;29;20208;-88
2022/04/15 03:30:01;;;;;;;5.60;4.50;;;9.80;99.90;;;;;;4906499;29;20205;-88
2022/04/15 03:32:27;;;;;;;6.13;3.40;;;9.80;99.90;;;;;;4900382;29;20194;-89
2022/04/15 03:34:53;;;;;;;6.23;3.53;;;9.80;99.90;;;;;;4923074;29;20185;-90
2022/04/15 03:37:19;;;;;;;5.97;3.97;;;9.80;99.90;;;;;;4911918;29;20485;-86
2022/04/15 03:39:44;;;;;;;7.17;5.33;;;9.80;99.90;;;;;;4912711;29;20225;-89
2022/04/15 03:42:10;;;;;;;6.33;3.37;;;9.70;99.90;;;;;;4908973;29;20197;-88
2022/04/15 03:44:36;;;;;;;5.47;3.50;;;9.70;99.90;;;;;;4909420;29;20253;-87
2022/04/15 03:47:02;;;;;;;4.63;4.18;;;9.80;99.90;;;;;;4909073;29;20210;-86
2022/04/15 03:49:28;;;;;;;12.05;4.18;;;9.70;99.90;;;;;;4910859;29;20221;-89
2022/04/15 03:51:53;;;;;;;6.03;3.53;;;9.70;99.90;;;;;;4910551;29;20182;-89
2022/04/15 03:54:19;;;;;;;6.20;3.90;;;9.70;99.90;;;;;;4926292;29;20271;-89
2022/04/15 03:56:46;;;;;;;7.30;4.57;;;9.70;99.90;;;;;;4931107;29;20285;-87
2022/04/15 03:59:12;;;;;;;5.68;4.10;;;;;;;;;;4924189;29;20309;-88
2022/04/15 04:01:38;;;;;;;6.80;4.03;;;9.70;99.90;;;;;;4916664;29;20209;-89
2022/04/15 04:04:04;;;;;;;7.30;4.63;;;9.70;99.90;;;;;;4913517;29;20466;-87
2022/04/15 04:06:29;;;;;;;4.97;4.17;;;9.70;99.90;;;;;;4900491;29;20198;-88
2022/04/15 04:08:55;;;;;;;6.40;4.50;;;9.70;99.90;;;;;;4898854;29;20496;-88
2022/04/15 04:11:21;;;;;;;7.40;4.30;;;9.70;99.90;;;;;;4897074;29;20182;-88
2022/04/15 04:13:47;;;;;;;6.03;4.93;;;9.70;99.90;;;;;;4913575;29;20189;-88
2022/04/15 04:16:12;;;;;;;6.73;5.13;;;9.70;99.90;;;;;;4914126;29;20725;-87
2022/04/15 04:18:39;;;;;;;8.00;4.57;;;9.70;99.90;;;;;;4913576;29;20249;-89
2022/04/15 04:21:05;;;;;;;5.88;4.53;;;9.70;99.90;;;;;;4912041;29;20197;-89
2022/04/15 04:23:30;;;;;;;10.90;4.30;;;9.50;99.90;;;;;;4916761;29;20197;-89
2022/04/15 04:25:56;;;;;;;8.73;4.90;;;9.70;99.90;;;;;;4898324;29;21072;-90
2022/04/15 04:28:21;;;;;;;7.17;5.50;;;9.70;99.90;;;;;;4899743;29;20237;-88
2022/04/15 04:30:47;;;;;;;10.80;7.30;;;9.70;99.90;;;;;;4904297;29;20170;-88
2022/04/15 04:33:12;;;;;;;14.10;7.17;;;9.80;99.90;;;;;;4930522;29;20209;-88
2022/04/15 04:35:38;;;;;;;9.87;7.23;;;9.80;99.90;;;;;;4909973;29;20198;-90
2022/04/15 04:38:05;;;;;;;10.67;7.40;;;10.00;99.90;;;;;;4900276;29;20201;-89
2022/04/15 04:40:32;;;;;;;14.63;7.75;;;10.00;99.90;;;;;;4908133;29;20198;-88
2022/04/15 04:42:58;;;;;;;16.17;6.65;;;10.10;99.90;;;;;;4895773;29;20201;-88
2022/04/15 04:45:23;;;;;;;10.53;5.13;;;10.10;99.90;;;;;;4897331;29;20204;-88
2022/04/15 04:47:49;;;;;;;7.50;3.70;;;10.10;99.90;;;;;;4904629;29;20501;-89
2022/04/15 04:50:15;;;;;;;7.07;4.77;;;10.00;99.90;;;;;;4908580;29;20456;-88
2022/04/15 04:52:41;;;;;;;8.37;6.30;;;10.10;99.90;;;;;;4904328;29;20648;-88
2022/04/15 04:55:08;;;;;;;6.30;4.97;;;10.40;99.90;;;;;;4891633;29;20190;-88
2022/04/15 04:57:33;;;;;;;6.75;5.20;;;11.50;99.90;;;;;;4909746;29;20696;-87
2022/04/15 04:59:59;;;;;;;9.07;4.63;;;11.50;99.90;;;;;;4925046;29;20205;-88
2022/04/15 05:02:25;;;;;;;7.07;4.90;;;12.00;99.90;;;;;;4927157;29;20461;-87
2022/04/15 05:04:50;;;;;;;6.87;4.60;;;12.70;99.90;;;;;;4908225;29;20267;-88
2022/04/15 05:07:16;;;;;;;9.17;5.50;;;13.70;99.90;;;;;;4926432;29;20235;-87
2022/04/15 05:09:43;;;;;;;6.87;4.90;;;14.40;99.90;;;;;;4925100;29;20236;-87
2022/04/15 05:12:11;;;;;;;6.10;4.30;;;15.40;99.90;;;;;;4929612;29;20188;-88
2022/04/15 05:14:37;;;;;;;7.87;4.63;;;16.30;99.90;;;;;;4910560;29;20536;-86
2022/04/15 05:17:04;;;;;;;6.23;4.67;;;17.40;99.90;;;;;;4928101;29;20468;-86
2022/04/15 05:19:30;;;;;;;7.10;5.23;;;;;;;;;;4925152;29;20520;-86
2022/04/15 05:21:55;;;;;;;5.93;5.03;;;18.80;99.90;;;;;;4924597;29;20567;-87
2022/04/15 05:24:21;;;;;;;6.13;5.27;;;;;;;;;;4930824;29;20499;-87
2022/04/15 05:26:47;;;;;;;7.37;4.40;;;19.70;99.90;;;;;;4928107;29;20216;-87
2022/04/15 05:29:13;;;;;;;9.93;5.57;;;;;;;;;;4927508;29;20522;-86
2022/04/15 05:31:39;;;;;;;10.20;5.07;;;;;;;;;;4924603;29;20185;-87
2022/04/15 05:34:04;;;;;;;10.10;5.30;;;;;;;;;;4927896;29;20436;-86
2022/04/15 05:36:30;;;;;;;7.07;6.37;;;21.60;99.90;;;;;;4933589;29;20449;-88
2022/04/15 05:38:56;;;;;;;9.47;5.90;;;;;;;;;;4930089;29;20849;-89
2022/04/15 05:41:22;;;;;;;5.20;4.27;;;;;;;;;;4929032;29;20193;-87
2022/04/15 05:43:48;;;;;;;7.57;6.03;;;23.60;99.90;;;;;;4911349;29;20855;-88
2022/04/15 05:46:15;;;;;;;6.13;5.27;;;24.40;99.90;;;;;;4927814;29;20469;-88
2022/04/15 05:48:40;;;;;;;3.93;3.00;;;24.40;99.90;;;;;;4926493;29;20243;-87
2022/04/15 05:51:06;;;;;;;6.87;4.13;;;;;;;;;;4919342;29;20440;-88
2022/04/15 05:53:32;;;;;;;5.23;4.57;;;;;;;;;;4952089;29;20241;-88
2022/04/15 05:55:58;;;;;;;6.20;4.80;;;;;;;;;;4926168;29;20445;-87
2022/04/15 05:58:25;;;;;;;7.03;5.77;;;23.70;99.90;;;;;;4932384;29;20463;-89
2022/04/15 06:00:51;;;;;;;7.47;6.47;;;24.30;99.90;;;;;;4928150;29;20492;-88
2022/04/15 06:03:17;;;;;;;14.80;9.50;;;26.20;99.90;;;;;;4929499;29;20532;-87
2022/04/15 06:05:43;;;;;;;11.83;8.93;;;27.40;98.00;;;;;;4929918;29;20687;-89
2022/04/15 06:08:11;;;;;;;9.93;6.90;;;27.50;94.00;;;;;;4927637;29;20481;-89
2022/04/15 06:10:37;;;;;;;13.13;6.97;;;28.10;92.70;;;;;;4928599;29;20291;-88
2022/04/15 06:13:09;;;;;;;13.23;8.67;;;28.70;90.80;;;;;;4930328;29;20578;-87
2022/04/15 06:15:41;;;;;;;13.07;7.83;;;29.20;87.60;;;;;;4927030;29;20192;-87
2022/04/15 06:18:07;;;;;;;8.90;7.40;;;;;;;;;;4913639;29;20480;-86
2022/04/15 06:20:33;;;;;;;12.77;9.03;;;;;;;;;;4926854;29;20496;-88
2022/04/15 06:22:59;;;;;;;11.70;9.40;;;;;;;;;;4911036;29;20449;-86
2022/04/15 06:25:27;;;;;;;13.80;10.83;;;;;;;;;;4917462;29;20566;-87
2022/04/15 06:27:54;;;;;;;16.13;11.63;;;;;;;;;;4909808;29;20465;-88
2022/04/15 06:30:21;;;;;;;12.63;10.40;;;;;;;;;;4909923;29;20435;-87
2022/04/15 06:32:48;;;;;;;14.70;13.30;;;31.70;71.50;;;;;;4927931;29;20444;-88
2022/04/15 06:35:14;;;;;;;13.57;12.37;;;;;;;;;;4910898;29;20443;-89
2022/04/15 06:37:39;;;;;;;16.70;13.70;;;32.50;67.70;;;;;;4914100;29;20459;-88
2022/04/15 06:40:05;;;;;;;16.63;14.00;;;31.70;64.10;;;;;;4903792;29;20478;-88
2022/04/15 06:42:31;;;;;;;13.40;12.17;;;31.00;67.90;;;;;;4919802;29;20675;-88
2022/04/15 06:44:58;;;;;;;15.47;13.80;;;31.60;66.60;;;;;;4906294;29;20443;-87
2022/04/15 06:47:24;;;;;;;15.57;14.10;;;;;;;;;;4920827;29;21053;-89
2022/04/15 06:49:50;;;;;;;14.77;13.47;;;;;;;;;;4920016;29;20477;-88
2022/04/15 06:52:17;;;;;;;16.43;14.93;;;;;;;;;;4905699;29;20462;-88
2022/04/15 06:54:44;;;;;;;16.80;15.30;;;;;;;;;;4920417;29;20441;-86
2022/04/15 06:57:10;;;;;;;18.50;15.53;;;31.50;63.90;;;;;;4920847;29;20450;-89
2022/04/15 06:59:39;;;;;;;17.10;15.60;;;;;;;;;;4898188;29;20556;-88
2022/04/15 07:02:05;;;;;;;16.00;14.73;;;;;;;;;;4908109;29;20523;-89
2022/04/15 07:04:34;;;;;;;17.17;15.57;;;32.70;61.00;;;;;;4904799;29;20457;-89
2022/04/15 07:07:00;;;;;;;19.10;17.60;;;32.70;61.80;;;;;;4904771;29;20471;-89
2022/04/15 07:09:26;;;;;;;18.73;17.10;;;;;;;;;;4912776;29;20474;-88
2022/04/15 07:11:52;;;;;;;19.00;17.00;;;31.30;61.00;;;;;;4904429;29;20182;-89
2022/04/15 07:14:17;;;;;;;19.97;17.07;;;30.90;62.60;;;;;;4905972;29;20433;-88
2022/04/15 07:16:43;;;;;;;18.10;16.30;;;30.80;62.60;;;;;;4906686;29;20217;-89
2022/04/15 07:19:09;;;;;;;20.37;18.40;;;;;;;;;;4934656;29;20662;-89
2022/04/15 07:21:35;;;;;;;19.03;17.03;;;;;;;;;;4923016;29;20219;-88
2022/04/15 07:24:01;;;;;;;21.27;18.97;;;;;;;;;;4912682;29;20497;-87
2022/04/15 07:26:27;;;;;;;20.30;18.30;;;;;;;;;;4909491;29;20547;-87
2022/04/15 07:28:53;;;;;;;22.83;20.57;;;;;;;;;;4917556;29;21614;-89
2022/04/15 07:31:19;;;;;;;21.73;19.33;;;29.50;59.80;;;;;;4905948;29;20958;-89
2022/04/15 07:33:46;;;;;;;26.07;21.17;;;;;;;;;;4906730;29;20908;-88
2022/04/15 07:38:57;;;;;;;21.47;19.17;;;28.80;63.00;;;;;;4907408;29;20443;-88
2022/04/15 07:41:23;;;;;;;20.80;18.83;;;;;;;;;;4926370;29;20834;-87
2022/04/15 07:43:49;;;;;;;21.27;19.37;;;;;;;;;;4913703;29;20205;-89
2022/04/15 07:46:16;;;;;;;23.27;18.70;;;30.10;59.60;;;;;;4903892;29;20472;-88
2022/04/15 07:48:42;;;;;;;21.87;19.90;;;;;;;;;;4924150;29;20466;-88
2022/04/15 07:51:08;;;;;;;22.50;20.50;;;;;;;;;;4911437;29;20543;-88
2022/04/15 07:53:35;;;;;;;18.60;16.77;;;29.20;61.70;;;;;;4921705;29;20438;-88
2022/04/15 07:56:01;;;;;;;19.37;17.67;;;;;;;;;;4904431;29;20441;-88
2022/04/15 07:58:27;;;;;;;21.43;19.50;;;;;;;;;;4908415;29;21111;-89
2022/04/15 08:00:53;;;;;;;21.20;18.67;;;;;;;;;;4912534;29;20448;-87
2022/04/15 08:03:22;;;;;;;21.10;19.00;;;;;;;;;;4901011;29;20448;-87
2022/04/15 08:05:48;;;;;;;21.07;18.97;;;30.40;62.60;;;;;;4908455;29;20442;-85
2022/04/15 08:08:14;;;;;;;20.83;18.83;;;;;;;;;;4909248;29;20496;-87
2022/04/15 08:10:40;;;;;;;22.17;19.87;;;;;;;;;;4905133;29;20272;-87
2022/04/15 08:13:06;;;;;;;21.97;20.03;;;31.50;59.30;;;;;;4909745;29;21138;-88
2022/04/15 08:15:32;;;;;;;22.80;20.43;;;31.80;58.40;;;;;;4910305;29;20447;-88
2022/04/15 08:17:58;;;;;;;23.80;21.27;;;;;;;;;;4907241;29;20533;-88
2022/04/15 08:20:23;;;;;;;22.90;20.70;;;30.10;56.80;;;;;;4910560;29;20863;-87
2022/04/15 08:22:49;;;;;;;20.83;18.83;;;30.10;58.80;;;;;;4909135;29;20585;-88
2022/04/15 08:25:14;;;;;;;21.57;19.40;;;29.20;60.00;;;;;;4907536;29;20251;-87
2022/04/15 08:27:41;;;;;;;20.67;18.57;;;;;;;;;;4905708;29;20219;-88
2022/04/15 08:30:07;;;;;;;18.27;16.50;;;28.50;62.30;;;;;;4906513;29;20227;-88
2022/04/15 08:32:35;;;;;;;19.27;17.57;;;29.60;63.80;;;;;;4916914;29;20446;-89
2022/04/15 08:35:02;;;;;;;17.10;15.50;;;30.00;61.20;;;;;;4907017;29;20584;-87
2022/04/15 08:37:28;;;;;;;17.23;15.70;;;;;;;;;;4904157;29;20467;-87
2022/04/15 08:39:54;;;;;;;19.13;17.20;;;30.90;59.40;;;;;;4904503;29;20460;-87
2022/04/15 08:42:20;;;;;;;18.57;16.67;;;31.00;59.10;;;;;;4903626;29;20441;-88
2022/04/15 08:44:51;;;;;;;18.30;16.83;;;30.30;59.60;;;;;;4903657;29;20449;-87
2022/04/15 08:47:18;;;;;;;19.33;17.30;;;30.40;59.60;;;;;;4903658;29;20461;-87
2022/04/15 08:49:46;;;;;;;19.23;17.63;;;30.50;59.00;;;;;;4910009;29;20473;-87
2022/04/15 08:52:15;;;;;;;18.30;16.80;;;31.00;58.50;;;;;;4931079;29;20468;-87
2022/04/15 08:54:41;;;;;;;22.43;20.23;;;;;;;;;;4911203;29;20788;-88
2022/04/15 08:57:07;;;;;;;22.57;20.47;;;;;;;;;;4908963;29;21399;-88
2022/04/15 08:59:33;;;;;;;20.50;18.90;;;;;;;;;;4905777;29;20504;-87
2022/04/15 09:01:58;;;;;;;22.80;20.60;;;30.30;58.00;;;;;;4896972;29;20446;-86
2022/04/15 09:04:25;;;;;;;23.43;21.20;;;30.30;58.70;;;;;;4905242;29;20434;-87
2022/04/15 09:06:55;;;;;;;22.17;19.27;;;28.30;59.70;;;;;;4905251;29;20203;-87
2022/04/15 09:09:24;;;;;;;23.77;18.97;;;27.80;65.10;;;;;;4907094;29;20484;-88
2022/04/15 09:11:50;;;;;;;21.27;19.30;;;28.00;63.70;;;;;;4903234;29;20443;-86
2022/04/15 09:14:16;;;;;;;19.83;18.03;;;;;;;;;;4900995;29;20440;-87
2022/04/15 09:16:43;;;;;;;19.90;17.50;;;29.80;58.70;;;;;;4897737;29;20525;-88
2022/04/15 09:19:10;;;;;;;20.20;18.13;;;30.50;56.90;;;;;;4902439;29;20468;-88
2022/04/15 09:21:37;;;;;;;22.63;20.50;;;30.40;56.30;;;;;;4913251;29;20488;-86
2022/04/15 09:24:04;;;;;;;22.63;15.73;;;;;;;;;;4899856;29;20957;-85
2022/04/15 09:26:30;;;;;;;17.57;15.00;;;;;;;;;;4896275;29;21076;-85
2022/04/15 09:28:55;;;;;;;17.30;13.80;;;30.90;53.90;;;;;;4894979;29;20471;-86
2022/04/15 09:31:23;;;;;;;23.43;21.10;;;30.90;55.20;;;;;;4903476;29;21612;-85
2022/04/15 09:33:56;;;;;;;23.60;21.50;;;31.80;54.80;;;;;;4900556;29;20851;-85
2022/04/15 09:36:29;;;;;;;16.93;15.13;;;29.00;54.30;;;;;;4904870;29;20434;-86
2022/04/15 09:39:00;;;;;;;20.13;14.57;;;28.80;55.90;;;;;;4901229;29;20450;-87
2022/04/15 09:41:29;;;;;;;22.43;15.97;;;25.60;59.70;;;;;;4902506;29;20449;-86
2022/04/15 09:43:57;;;;;;;18.30;14.03;;;25.50;60.30;;;;;;4902582;29;20898;-86
2022/04/15 09:46:22;;;;;;;17.03;13.43;;;25.50;62.70;;;;;;4907546;29;20461;-87
2022/04/15 09:48:58;;;;;;;17.13;14.37;;;26.50;63.60;;;;;;4902664;29;20475;-87
2022/04/15 09:51:24;;;;;;;17.67;13.90;;;25.90;63.00;;;;;;4902931;29;20193;-87
2022/04/15 09:53:52;;;;;;;20.13;14.20;;;24.70;64.00;;;;;;4902329;29;21525;-88
2022/04/15 09:56:22;;;;;;;21.40;15.73;;;23.60;67.70;;;;;;4900096;29;20447;-86
2022/04/15 09:58:53;;;;;;;22.20;14.77;;;23.40;68.70;;;;;;4896407;29;20545;-85
2022/04/15 10:01:22;;;;;;;21.70;15.43;;;23.00;70.90;;;;;;4901154;29;21124;-87
2022/04/15 10:03:49;;;;;;;17.93;14.20;;;22.90;71.60;;;;;;4898083;29;20449;-86
2022/04/15 10:06:15;;;;;;;20.70;14.40;;;;;;;;;;4885675;29;20537;-87
2022/04/15 10:08:42;;;;;;;24.93;16.00;;;22.80;77.00;;;;;;4899394;29;20902;-86
2022/04/15 10:11:09;;;;;;;18.37;14.93;;;22.80;76.80;;;;;;4901475;29;20449;-85
2022/04/15 10:13:35;;;;;;;25.53;14.83;;;23.50;75.90;;;;;;4900118;29;20446;-87
2022/04/15 10:16:02;;;;;;;23.10;16.97;;;25.80;70.10;;;;;;4900492;29;20454;-86
2022/04/15 10:18:29;;;;;;;20.70;15.07;;;25.30;67.10;;;;;;4885718;29;20456;-86
2022/04/15 10:20:55;;;;;;;19.80;13.67;;;25.30;63.60;;;;;;4906748;29;20433;-85
2022/04/15 10:23:22;;;;;;;17.63;14.40;;;27.00;64.30;;;;;;4920230;29;20452;-87
2022/04/15 10:25:49;;;;;;;19.73;15.67;;;25.50;64.10;;;;;;4906761;29;20525;-85
2022/04/15 10:28:20;;;;;;;17.83;14.70;;;25.60;64.90;;;;;;4907673;29;20582;-85
2022/04/15 10:31:11;;;;;;;18.30;14.60;;;24.70;66.90;;;;;;4904916;29;20473;-87
2022/04/15 10:33:40;;;;;;;24.30;15.33;;;23.10;68.00;;;;;;4887514;29;20437;-87
2022/04/15 10:36:17;;;;;;;18.03;14.30;;;21.80;75.20;;;;;;4909745;29;22188;-86
2022/04/15 10:39:03;;;;;;;17.80;14.27;;;21.70;77.30;;;;;;4903062;29;20449;-87
2022/04/15 10:41:42;;;;;;;17.60;13.70;;;21.40;75.90;;;;;;4902988;29;20931;-87
2022/04/15 10:44:11;;;;;;;20.70;11.87;;;21.50;73.70;;;;;;4890104;29;20445;-87
2022/04/15 10:46:37;;;;;;;18.20;12.50;;;22.00;73.30;;;;;;4886579;29;20469;-86
2022/04/15 10:49:23;;;;;;;18.30;12.43;;;21.60;77.80;;;;;;4907976;29;20474;-87
2022/04/15 10:51:57;;;;;;;15.30;11.30;;;21.50;77.00;;;;;;4894586;29;20947;-88
2022/04/15 10:54:31;;;;;;;16.27;11.70;;;21.10;76.80;;;;;;4892291;29;20446;-87
2022/04/15 10:57:01;;;;;;;16.70;11.63;;;20.90;75.10;;;;;;4907053;29;20457;-87
2022/04/15 11:02:22;;;;;;;11.83;10.00;;;21.20;76.10;;;;;;4913905;29;20453;-88
2022/04/15 11:04:52;;;;;;;13.20;10.30;;;20.60;76.70;;;;;;4907969;29;20440;-88
2022/04/15 11:07:28;;;;;;;17.10;10.70;;;20.00;74.10;;;;;;4909231;29;20556;-86
2022/04/15 11:09:55;;;;;;;14.80;9.77;;;20.70;77.60;;;;;;4910096;29;20477;-87
2022/04/15 11:12:42;;;;;;;12.00;8.30;;;20.80;79.00;;;;;;4908851;29;20441;-86
2022/04/15 11:15:08;;;;;;;11.20;8.07;;;21.30;74.10;;;;;;4905575;29;20831;-87
2022/04/15 11:18:12;;;;;;;17.60;10.83;;;21.00;76.90;;;;;;4904545;29;20466;-87
2022/04/15 11:20:38;;;;;;;12.90;8.93;;;20.70;77.20;;;;;;4906585;29;20227;-87
2022/04/15 11:23:05;;;;;;;17.50;11.03;;;20.00;79.00;;;;;;4907224;29;20449;-86
2022/04/15 11:25:31;;;;;;;13.17;9.17;;;19.90;82.70;;;;;;4906506;29;20473;-88
2022/04/15 11:28:03;;;;;;;13.13;9.60;;;20.00;81.80;;;;;;4909768;29;20474;-87
2022/04/15 11:30:29;;;;;;;16.57;9.53;;;20.40;82.50;;;;;;4903761;29;20442;-86
2022/04/15 11:32:56;;;;;;;13.13;10.10;;;20.60;79.20;;;;;;4903969;29;20496;-87
2022/04/15 11:35:26;;;;;;;12.33;8.60;;;20.40;79.00;;;;;;4902057;29;20253;-86
2022/04/15 11:37:55;;;;;;;12.13;9.13;;;20.30;76.40;;;;;;4898681;29;20488;-87
2022/04/15 11:40:21;;;;;;;16.83;11.00;;;20.20;76.90;;;;;;4904333;29;20472;-85
2022/04/15 11:42:47;;;;;;;16.60;11.10;;;19.80;80.10;;;;;;4906542;29;20458;-87
2022/04/15 11:45:13;;;;;;;13.40;9.67;;;19.50;78.80;;;;;;4923713;29;20438;-85
2022/04/15 11:47:39;;;;;;;14.50;11.93;;;19.90;83.20;;;;;;4910140;29;20221;-86
2022/04/15 11:50:05;;;;;;;22.93;12.40;;;19.50;85.00;;;;;;4909327;29;20469;-87
2022/04/15 11:52:30;;;;;;;17.87;12.73;;;19.10;86.30;;;;;;4910099;29;20595;-86
2022/04/15 11:54:58;;;;;;;14.43;11.03;;;18.90;86.60;;;;;;4911096;29;20481;-87
2022/04/15 11:57:25;;;;;;;16.13;9.77;;;19.50;88.00;;;;;;4909263;29;20774;-84
2022/04/15 11:59:51;;;;;;;13.23;7.83;;;19.40;84.10;;;;;;4909402;29;20484;-86
2022/04/15 12:02:23;;;;;;;14.70;9.27;;;19.30;83.70;;;;;;4910392;29;20434;-87
2022/04/15 12:04:56;;;;;;;10.87;8.90;;;19.40;85.40;;;;;;4910221;29;20532;-85
2022/04/15 12:07:23;;;;;;;11.23;8.53;;;19.60;83.60;;;;;;4893246;29;20453;-86
2022/04/15 12:09:50;;;;;;;11.90;8.40;;;19.60;80.30;;;;;;4910819;29;20847;-84
2022/04/15 12:12:17;;;;;;;11.80;7.40;;;19.80;81.90;;;;;;4893290;29;20445;-85
2022/04/15 12:14:43;;;;;;;10.60;7.90;;;19.70;77.20;;;;;;4909886;29;20434;-86
2022/04/15 12:17:11;;;;;;;11.00;6.57;;;19.60;77.20;;;;;;4910200;29;20500;-85
2022/04/15 12:19:37;;;;;;;8.77;6.03;;;19.50;77.60;;;;;;4912403;29;20438;-86
2022/04/15 12:22:04;;;;;;;9.40;6.60;;;19.40;75.00;;;;;;4914119;29;20826;-85
2022/04/15 12:24:32;;;;;;;8.60;5.73;;;19.10;78.10;;;;;;4898711;29;20441;-85
2022/04/15 12:27:01;;;;;;;14.00;6.13;;;19.00;79.50;;;;;;4900328;29;20457;-86
2022/04/15 12:32:25;;;;;;;8.70;5.40;;;19.10;80.00;;;;;;4910078;29;20460;-85
2022/04/15 12:35:12;;;;;;;8.07;5.87;;;19.20;79.00;;;;;;4907332;29;20448;-85
2022/04/15 12:37:37;;;;;;;7.53;5.70;;;19.40;78.70;;;;;;4889789;29;20832;-86
2022/04/15 12:40:29;;;;;;;9.07;5.80;;;19.30;75.90;;;;;;4895135;29;20437;-87
2022/04/15 12:42:55;;;;;;;11.27;5.63;;;19.70;77.30;;;;;;4909600;29;20528;-86
2022/04/15 12:45:22;;;;;;;7.73;5.90;;;19.80;78.60;;;;;;4887463;29;20529;-84
2022/04/15 12:48:00;;;;;;;6.53;5.50;;;19.80;76.70;;;;;;4910066;29;20453;-83
2022/04/15 12:50:33;;;;;;;9.07;6.83;;;20.00;78.20;;;;;;4903742;29;20481;-86
2022/04/15 12:52:59;;;;;;;7.33;5.80;;;20.10;74.80;;;;;;4888672;29;20522;-86
2022/04/15 12:55:26;;;;;;;5.57;4.97;;;20.00;78.10;;;;;;4894708;29;20442;-85
2022/04/15 12:57:51;;;;;;;8.23;5.60;;;19.70;72.50;;;;;;4905665;29;21003;-85
2022/04/15 13:00:17;;;;;;;11.33;6.67;;;19.70;74.00;;;;;;4911687;29;20461;-85
2022/04/15 13:02:43;;;;;;;12.93;6.90;;;19.80;79.20;;;;;;4919018;29;20181;-84
2022/04/15 13:05:10;;;;;;;7.90;5.97;;;19.70;80.30;;;;;;4910729;29;20438;-87
2022/04/15 13:07:36;;;;;;;10.57;6.37;;;19.60;77.50;;;;;;4917762;29;20269;-88
2022/04/15 13:10:04;;;;;;;8.13;5.07;;;19.80;79.30;;;;;;4901216;29;20473;-87